Time;durP1;ratioP1;P1;durP2;ratioP2;P2;SDS_P1;SDS_P2;PMS_P1;PMS_P2;Temp;Humidity;BMP_temperature;BMP_pressure;BME280_temperature;BME280_humidity;BME280_pressure;Samples;Min_cycle;Max_cycle;Signal;HPM_P1;HPM_P2
2022/06/02 00:02:18;;;;;;;3.70;2.58;;;14.30;99.90;;;;;;5068576;28;20044;-66
2022/06/02 00:04:56;;;;;;;5.57;2.50;;;14.30;99.90;;;;;;5085822;28;20602;-65
2022/06/02 00:07:37;;;;;;;4.53;2.55;;;14.20;99.90;;;;;;5088701;28;20039;-68
2022/06/02 00:10:18;;;;;;;3.08;2.20;;;14.10;99.90;;;;;;5088797;28;20051;-68
2022/06/02 00:12:56;;;;;;;3.42;2.40;;;14.00;99.90;;;;;;5086318;28;20667;-68
2022/06/02 00:15:23;;;;;;;4.72;2.33;;;14.00;99.90;;;;;;5088863;28;20032;-67
2022/06/02 00:18:08;;;;;;;6.85;2.47;;;14.00;99.90;;;;;;5086120;28;20032;-67
2022/06/02 00:20:59;;;;;;;3.92;2.20;;;14.00;99.90;;;;;;5088964;28;20028;-65
2022/06/02 00:24:02;;;;;;;5.65;2.20;;;14.00;99.90;;;;;;5088218;28;20028;-67
2022/06/02 00:26:28;;;;;;;4.15;1.80;;;14.00;99.90;;;;;;5087832;28;20059;-69
2022/06/02 00:29:34;;;;;;;4.80;1.75;;;14.00;99.90;;;;;;5088017;28;20051;-68
2022/06/02 00:32:22;;;;;;;2.33;1.70;;;14.10;99.90;;;;;;5064203;28;20114;-67
2022/06/02 00:34:54;;;;;;;5.18;1.88;;;14.10;99.90;;;;;;5083688;28;20639;-68
2022/06/02 00:37:50;;;;;;;2.80;1.90;;;14.10;99.90;;;;;;5086232;28;20103;-67
2022/06/02 00:40:17;;;;;;;5.05;1.60;;;14.10;99.90;;;;;;5077557;28;20115;-65
2022/06/02 00:42:57;;;;;;;3.22;1.67;;;14.10;99.90;;;;;;5085642;28;20040;-67
2022/06/02 00:45:23;;;;;;;6.30;1.80;;;14.10;99.90;;;;;;5084983;28;20032;-66
2022/06/02 00:47:56;;;;;;;4.80;1.60;;;14.10;99.90;;;;;;5087399;28;20064;-67
2022/06/02 00:50:57;;;;;;;2.50;1.45;;;14.10;99.90;;;;;;5085436;28;20036;-66
2022/06/02 00:57:30;;;;;;;2.83;1.50;;;14.20;99.90;;;;;;5086553;28;20138;-67
2022/06/02 00:59:48;;;;;;;3.60;1.70;;;14.10;99.90;;;;;;5082947;28;20066;-68
2022/06/02 01:02:14;;;;;;;3.92;1.67;;;14.20;99.90;;;;;;5085204;28;20032;-66
2022/06/02 01:04:43;;;;;;;3.90;1.90;;;14.10;99.90;;;;;;5085927;28;20483;-67
2022/06/02 01:07:27;;;;;;;3.03;1.50;;;14.10;99.90;;;;;;5083332;28;20602;-65
2022/06/02 01:10:19;;;;;;;2.10;1.40;;;14.10;99.90;;;;;;5084760;28;20058;-67
2022/06/02 01:13:07;;;;;;;3.40;1.40;;;14.00;99.90;;;;;;5086270;28;20032;-66
2022/06/02 01:15:42;;;;;;;2.63;1.77;;;13.90;99.90;;;;;;5085177;28;20452;-66
2022/06/02 01:18:39;;;;;;;3.95;2.17;;;13.90;99.90;;;;;;5085403;28;20477;-65
2022/06/02 01:21:19;;;;;;;3.95;1.70;;;13.90;99.90;;;;;;5086547;28;20016;-66
2022/06/02 01:23:47;;;;;;;3.22;1.42;;;13.80;99.90;;;;;;5085386;28;20032;-67
2022/06/02 01:26:23;;;;;;;2.83;1.65;;;13.80;99.90;;;;;;5069747;28;20475;-65
2022/06/02 01:29:13;;;;;;;1.83;1.30;;;13.80;99.90;;;;;;5085799;28;20032;-69
2022/06/02 01:32:08;;;;;;;2.80;1.70;;;13.70;99.90;;;;;;5078321;28;20047;-66
2022/06/02 01:35:01;;;;;;;3.30;1.55;;;13.70;99.90;;;;;;5084508;28;20044;-65
2022/06/02 01:37:40;;;;;;;3.03;1.48;;;13.70;99.90;;;;;;5087194;28;20032;-67
2022/06/02 01:40:14;;;;;;;2.78;1.70;;;13.60;99.90;;;;;;5085913;28;20683;-67
2022/06/02 01:42:58;;;;;;;2.78;1.52;;;13.50;99.90;;;;;;5083004;28;20024;-66
2022/06/02 01:45:26;;;;;;;1.95;1.55;;;13.50;99.90;;;;;;5084601;28;20046;-66
2022/06/02 01:48:31;;;;;;;2.67;1.80;;;13.50;99.90;;;;;;5060843;28;20028;-64
2022/06/02 01:51:15;;;;;;;3.17;1.63;;;13.40;99.90;;;;;;5074932;28;20056;-65
2022/06/02 01:53:49;;;;;;;3.78;1.90;;;13.40;99.90;;;;;;5090708;28;20024;-65
2022/06/02 01:56:34;;;;;;;4.60;1.92;;;13.40;99.90;;;;;;5088431;28;20032;-65
2022/06/02 01:59:34;;;;;;;2.75;1.95;;;13.40;99.90;;;;;;5090621;28;20079;-67
2022/06/02 02:02:26;;;;;;;4.00;2.10;;;13.40;99.90;;;;;;5089356;28;20038;-65
2022/06/02 02:05:19;;;;;;;3.38;2.10;;;13.30;99.90;;;;;;5089371;28;20628;-65
2022/06/02 02:07:44;;;;;;;3.28;1.73;;;13.20;99.90;;;;;;5090841;28;20055;-66
2022/06/02 02:10:39;;;;;;;3.97;2.10;;;13.10;99.90;;;;;;5089463;28;20036;-67
2022/06/02 02:13:23;;;;;;;3.00;2.00;;;13.00;99.90;;;;;;5016190;28;20107;-67
2022/06/02 02:16:11;;;;;;;3.33;1.83;;;13.00;99.90;;;;;;5089399;28;20032;-65
2022/06/02 02:19:14;;;;;;;4.90;2.00;;;12.90;99.90;;;;;;5089377;28;20559;-66
2022/06/02 02:21:43;;;;;;;5.53;2.28;;;12.90;99.90;;;;;;5089337;28;20036;-64
2022/06/02 02:24:42;;;;;;;5.10;2.10;;;12.80;99.90;;;;;;5090688;28;20476;-67
2022/06/02 02:27:19;;;;;;;4.20;1.88;;;12.80;99.90;;;;;;5083288;28;20027;-67
2022/06/02 02:30:08;;;;;;;3.60;2.00;;;12.70;99.90;;;;;;5081045;28;20028;-67
2022/06/02 02:32:47;;;;;;;3.13;2.30;;;12.70;99.90;;;;;;5085303;28;20055;-69
2022/06/02 02:35:23;;;;;;;3.83;2.20;;;12.60;99.90;;;;;;5089227;28;20445;-66
2022/06/02 02:37:54;;;;;;;10.45;2.50;;;12.60;99.90;;;;;;5088797;28;20133;-68
2022/06/02 02:40:52;;;;;;;;;;;12.60;99.90;;;;;;5091755;28;20064;-66
2022/06/02 02:43:44;;;;;;;4.20;2.42;;;12.50;99.90;;;;;;5039823;28;20687;-68
2022/06/02 02:46:32;;;;;;;4.43;2.20;;;12.60;99.90;;;;;;5091293;28;20031;-67
2022/06/02 02:49:26;;;;;;;4.70;2.20;;;12.50;99.90;;;;;;5080664;28;20048;-66
2022/06/02 02:51:57;;;;;;;4.35;2.03;;;12.50;99.90;;;;;;5089523;28;20028;-66
2022/06/02 02:54:35;;;;;;;3.75;2.13;;;12.60;99.90;;;;;;5089357;28;20028;-67
2022/06/02 02:57:27;;;;;;;7.45;2.50;;;12.50;99.90;;;;;;5078107;28;20024;-64
2022/06/02 03:00:09;;;;;;;4.82;2.05;;;12.60;99.90;;;;;;5087017;28;20036;-66
2022/06/02 03:02:46;;;;;;;3.75;2.25;;;12.60;99.90;;;;;;5085518;28;20345;-67
2022/06/02 03:05:26;;;;;;;4.22;2.40;;;12.70;99.90;;;;;;5089076;28;20114;-66
2022/06/02 03:07:52;;;;;;;4.60;2.67;;;12.60;99.90;;;;;;5088506;28;20055;-66
2022/06/02 03:10:31;;;;;;;3.97;2.50;;;12.50;99.90;;;;;;5072613;28;20069;-68
2022/06/02 03:13:20;;;;;;;7.95;2.67;;;12.40;99.90;;;;;;5082776;28;20179;-66
2022/06/02 03:15:58;;;;;;;5.30;2.80;;;12.40;99.90;;;;;;5090585;28;20085;-67
2022/06/02 03:18:58;;;;;;;4.18;2.67;;;12.40;99.90;;;;;;5090013;28;20472;-68
2022/06/02 03:21:34;;;;;;;8.75;2.80;;;12.20;99.90;;;;;;5090230;28;20058;-67
2022/06/02 03:24:33;;;;;;;4.00;2.38;;;12.20;99.90;;;;;;5089208;28;20111;-67
2022/06/02 03:27:19;;;;;;;3.55;2.35;;;12.20;99.90;;;;;;5084830;28;20043;-66
2022/06/02 03:30:10;;;;;;;4.78;2.38;;;12.10;99.90;;;;;;5089761;28;20047;-66
2022/06/02 03:32:54;;;;;;;4.10;2.42;;;12.00;99.90;;;;;;5089456;28;20032;-69
2022/06/02 03:35:50;;;;;;;4.43;2.20;;;12.00;99.90;;;;;;5087896;28;20043;-68
2022/06/02 03:38:25;;;;;;;4.30;2.35;;;12.00;99.90;;;;;;5080061;28;20077;-67
2022/06/02 03:40:53;;;;;;;5.45;2.50;;;12.00;99.90;;;;;;5089724;28;20028;-68
2022/06/02 03:43:36;;;;;;;3.53;2.40;;;12.00;99.90;;;;;;5088702;28;20024;-68
2022/06/02 03:46:41;;;;;;;3.55;2.50;;;11.90;99.90;;;;;;5086275;28;20771;-68
2022/06/02 03:49:09;;;;;;;8.07;2.55;;;12.00;99.90;;;;;;5082633;28;20515;-68
2022/06/02 03:52:15;;;;;;;4.38;2.60;;;12.10;99.90;;;;;;5085589;28;20020;-69
2022/06/02 03:54:53;;;;;;;5.28;2.70;;;12.00;99.90;;;;;;5088910;28;20129;-67
2022/06/02 03:57:34;;;;;;;4.40;2.60;;;11.90;99.90;;;;;;5089814;28;20385;-68
2022/06/02 04:00:13;;;;;;;4.50;3.00;;;11.90;99.90;;;;;;5089126;28;20606;-67
2022/06/02 04:02:46;;;;;;;5.22;2.65;;;11.80;99.90;;;;;;5089821;28;20372;-68
2022/06/02 04:06:06;;;;;;;5.88;2.60;;;11.80;99.90;;;;;;5089057;28;20114;-67
2022/06/02 04:09:10;;;;;;;4.05;2.67;;;11.90;99.90;;;;;;4987283;28;20565;-67
2022/06/02 04:15:11;;;;;;;4.00;2.47;;;11.90;99.90;;;;;;5088876;28;20597;-67
2022/06/02 04:18:01;;;;;;;3.60;2.50;;;12.10;99.90;;;;;;5090074;28;20027;-67
2022/06/02 04:20:48;;;;;;;5.57;2.72;;;12.00;99.90;;;;;;5086535;28;20464;-67
2022/06/02 04:23:29;;;;;;;4.60;2.75;;;11.90;99.90;;;;;;5088518;28;20020;-68
2022/06/02 04:26:06;;;;;;;5.03;3.03;;;11.80;99.90;;;;;;5087123;28;20030;-67
2022/06/02 04:28:43;;;;;;;6.55;3.22;;;11.90;99.90;;;;;;5088952;28;20154;-67
2022/06/02 04:31:18;;;;;;;4.28;2.67;;;12.10;99.90;;;;;;5086487;28;20036;-66
2022/06/02 04:33:56;;;;;;;8.20;2.97;;;12.20;99.90;;;;;;5088352;28;20028;-69
2022/06/02 04:36:39;;;;;;;6.57;3.13;;;12.30;99.90;;;;;;5089159;28;20025;-68
2022/06/02 04:39:31;;;;;;;5.38;2.90;;;12.40;99.90;;;;;;5087900;28;20036;-67
2022/06/02 04:42:28;;;;;;;5.15;2.67;;;12.50;99.90;;;;;;5087368;28;20024;-68
2022/06/02 04:45:21;;;;;;;4.45;2.80;;;12.50;99.90;;;;;;5059157;28;20040;-67
2022/06/02 04:48:07;;;;;;;5.85;3.03;;;12.40;99.90;;;;;;5088397;28;20032;-68
2022/06/02 04:50:33;;;;;;;12.18;3.17;;;12.50;99.90;;;;;;5088947;28;20058;-67
2022/06/02 04:53:20;;;;;;;6.10;3.15;;;12.70;99.90;;;;;;5088266;28;20020;-67
2022/06/02 04:56:20;;;;;;;6.03;2.70;;;12.80;99.90;;;;;;5088535;28;20103;-66
2022/06/02 04:59:07;;;;;;;8.37;3.17;;;13.10;99.90;;;;;;5087583;28;20161;-66
2022/06/02 05:01:51;;;;;;;7.82;3.13;;;13.50;99.90;;;;;;5089103;28;20036;-67
2022/06/02 05:04:28;;;;;;;6.82;2.97;;;13.90;99.90;;;;;;5089017;28;20032;-67
2022/06/02 05:07:16;;;;;;;8.30;3.35;;;14.10;99.90;;;;;;5087506;28;20067;-67
2022/06/02 05:09:52;;;;;;;5.93;3.28;;;13.90;99.90;;;;;;5085633;28;20495;-68
2022/06/02 05:12:47;;;;;;;6.03;3.22;;;13.90;99.90;;;;;;5078682;28;20031;-67
2022/06/02 05:15:45;;;;;;;9.07;3.83;;;13.90;99.90;;;;;;5087097;28;20036;-67
2022/06/02 05:18:10;;;;;;;4.68;3.10;;;13.80;99.90;;;;;;5078513;28;20024;-66
2022/06/02 05:20:48;;;;;;;7.15;3.67;;;13.80;99.90;;;;;;5088554;28;20434;-68
2022/06/02 05:23:32;;;;;;;7.88;3.95;;;13.60;99.90;;;;;;5088829;28;20069;-67
2022/06/02 05:26:35;;;;;;;8.20;3.35;;;13.40;99.90;;;;;;5079280;28;20161;-69
2022/06/02 05:29:29;;;;;;;5.03;3.25;;;13.60;99.90;;;;;;5083508;28;20032;-65
2022/06/02 05:32:18;;;;;;;5.90;3.28;;;13.70;99.90;;;;;;5091909;28;20112;-67
2022/06/02 05:34:55;;;;;;;5.75;2.97;;;13.70;99.90;;;;;;5092550;28;20028;-67
2022/06/02 05:37:39;;;;;;;6.65;3.65;;;14.10;99.90;;;;;;5092874;28;20056;-67
2022/06/02 05:40:38;;;;;;;4.38;3.22;;;14.30;99.90;;;;;;5091182;28;20028;-67
2022/06/02 05:43:46;;;;;;;5.45;3.30;;;14.20;99.90;;;;;;5091435;28;20035;-68
2022/06/02 05:46:34;;;;;;;6.75;3.40;;;14.30;99.90;;;;;;5058415;28;20039;-67
2022/06/02 05:49:18;;;;;;;6.57;3.88;;;14.50;99.90;;;;;;5087497;28;20036;-66
2022/06/02 05:51:59;;;;;;;10.10;3.95;;;14.60;99.90;;;;;;5089679;28;20073;-67
2022/06/02 05:54:25;;;;;;;;;;;14.80;99.90;;;;;;5089856;28;20027;-67
2022/06/02 05:57:28;;;;;;;5.22;3.22;;;14.80;99.90;;;;;;5087302;28;20335;-67
2022/06/02 06:00:01;;;;;;;12.90;5.40;;;15.00;99.90;;;;;;5087363;28;20036;-67
2022/06/02 06:03:04;;;;;;;7.88;3.60;;;15.00;99.90;;;;;;5092195;28;20073;-67
2022/06/02 06:05:53;;;;;;;7.20;4.20;;;15.10;99.90;;;;;;5091288;28;20028;-68
2022/06/02 06:08:41;;;;;;;5.28;3.13;;;15.10;99.90;;;;;;5091339;28;20051;-65
2022/06/02 06:11:26;;;;;;;4.80;3.20;;;15.20;99.90;;;;;;5090778;28;20097;-67
2022/06/02 06:14:59;;;;;;;6.07;3.03;;;15.40;99.90;;;;;;5090998;28;20054;-65
2022/06/02 06:18:22;;;;;;;6.30;3.17;;;15.60;99.90;;;;;;5024564;28;20670;-67
2022/06/02 06:21:06;;;;;;;4.30;3.20;;;15.60;99.90;;;;;;5010029;28;20084;-69
2022/06/02 06:23:59;;;;;;;5.47;3.67;;;15.70;99.90;;;;;;5091100;28;20103;-66
2022/06/02 06:27:03;;;;;;;3.75;2.90;;;15.50;99.90;;;;;;5092021;28;20034;-67
2022/06/02 06:30:01;;;;;;;4.40;2.65;;;15.50;99.90;;;;;;5087476;28;20064;-68
2022/06/02 06:32:39;;;;;;;4.78;2.95;;;15.80;99.90;;;;;;5073416;28;20061;-68
2022/06/02 06:35:23;;;;;;;4.78;2.95;;;16.00;99.90;;;;;;5089094;28;20028;-67
2022/06/02 06:38:00;;;;;;;6.45;2.72;;;16.00;99.90;;;;;;5090985;28;20131;-68
2022/06/02 06:40:35;;;;;;;4.85;3.00;;;16.20;99.90;;;;;;5091450;28;20042;-66
2022/06/02 06:43:28;;;;;;;5.35;2.90;;;16.40;99.90;;;;;;5090743;28;20462;-66
2022/06/02 06:46:15;;;;;;;7.10;2.67;;;16.40;99.90;;;;;;5090578;28;20055;-68
2022/06/02 06:48:45;;;;;;;5.30;2.60;;;16.50;99.90;;;;;;5090491;28;20024;-66
2022/06/02 06:51:20;;;;;;;4.47;2.83;;;16.80;99.90;;;;;;5090800;28;20032;-68
2022/06/02 06:53:55;;;;;;;3.53;2.63;;;16.80;99.90;;;;;;5091471;28;20032;-66
2022/06/02 06:56:37;;;;;;;6.38;2.83;;;17.10;99.90;;;;;;5091014;28;20072;-66
2022/06/02 06:59:08;;;;;;;5.50;2.78;;;17.30;99.90;;;;;;5087893;28;20023;-67
2022/06/02 07:01:43;;;;;;;5.20;2.88;;;17.40;99.30;;;;;;5088385;28;20054;-66
2022/06/02 07:04:21;;;;;;;3.75;2.63;;;17.40;99.00;;;;;;5084476;28;20032;-68
2022/06/02 07:07:13;;;;;;;4.53;2.95;;;17.40;98.50;;;;;;5090652;28;20036;-66
2022/06/02 07:10:03;;;;;;;4.75;2.42;;;17.40;97.70;;;;;;5078631;28;20097;-67
2022/06/02 07:12:52;;;;;;;5.32;2.53;;;17.50;98.10;;;;;;5089793;28;20058;-66
2022/06/02 07:15:37;;;;;;;5.28;2.60;;;17.60;97.00;;;;;;5072789;28;20047;-67
2022/06/02 07:18:33;;;;;;;6.45;2.70;;;17.60;96.20;;;;;;5086780;28;20039;-67
2022/06/02 07:21:17;;;;;;;3.28;2.30;;;17.70;96.60;;;;;;5089076;28;20032;-67
2022/06/02 07:24:20;;;;;;;4.45;2.30;;;17.70;97.00;;;;;;5089660;28;20040;-66
2022/06/02 07:27:21;;;;;;;3.33;2.30;;;18.10;96.70;;;;;;5089010;28;20032;-66
2022/06/02 07:30:21;;;;;;;4.93;2.20;;;18.20;94.80;;;;;;5088381;28;20040;-67
2022/06/02 07:32:47;;;;;;;;;;;18.20;94.90;;;;;;5084364;28;20111;-67
2022/06/02 07:35:57;;;;;;;5.63;2.20;;;18.10;93.00;;;;;;5089591;28;20391;-66
2022/06/02 07:38:41;;;;;;;3.10;2.28;;;18.20;94.50;;;;;;5082730;28;20044;-67
2022/06/02 07:41:19;;;;;;;4.88;2.10;;;18.30;93.70;;;;;;5089675;28;20032;-67
2022/06/02 07:44:03;;;;;;;6.05;2.15;;;18.50;94.00;;;;;;5090759;28;20107;-67
2022/06/02 07:46:35;;;;;;;4.07;2.20;;;18.70;92.50;;;;;;5090398;28;20032;-68
2022/06/02 07:49:28;;;;;;;6.43;2.42;;;18.70;92.60;;;;;;5086940;28;20073;-66
2022/06/02 07:52:31;;;;;;;2.47;1.80;;;18.60;92.20;;;;;;5089809;28;20024;-69
2022/06/02 07:55:21;;;;;;;2.30;1.50;;;18.60;90.70;;;;;;5089304;28;20043;-68
2022/06/02 07:58:16;;;;;;;3.72;1.90;;;18.70;91.30;;;;;;5090304;28;20059;-69
2022/06/02 08:00:53;;;;;;;3.42;1.90;;;18.90;89.20;;;;;;5089867;28;20110;-67
2022/06/02 08:03:21;;;;;;;3.63;2.20;;;19.10;90.00;;;;;;5088514;28;20039;-66
2022/06/02 08:06:23;;;;;;;3.53;1.92;;;19.10;86.10;;;;;;5089737;28;20417;-69
2022/06/02 08:09:27;;;;;;;4.72;1.90;;;18.90;86.80;;;;;;5088975;28;20048;-68
2022/06/02 08:11:58;;;;;;;2.05;1.45;;;18.80;85.20;;;;;;5069278;28;20767;-69
2022/06/02 08:14:33;;;;;;;3.03;1.63;;;19.10;89.20;;;;;;5089008;28;20032;-67
2022/06/02 08:17:06;;;;;;;5.03;1.70;;;19.50;86.00;;;;;;5088430;28;20028;-67
2022/06/02 08:19:47;;;;;;;4.95;2.20;;;19.50;85.40;;;;;;5089644;28;20105;-68
2022/06/02 08:22:16;;;;;;;;;;;19.40;82.00;;;;;;5089298;28;20092;-67
2022/06/02 08:25:01;;;;;;;4.43;1.90;;;19.40;88.10;;;;;;5089595;28;19904;-67
2022/06/02 08:28:01;;;;;;;4.30;2.33;;;19.40;87.70;;;;;;5089638;28;20035;-66
2022/06/02 08:30:51;;;;;;;4.75;2.03;;;19.60;84.50;;;;;;5089000;28;20032;-65
2022/06/02 08:33:25;;;;;;;4.13;2.20;;;19.70;81.40;;;;;;5087742;28;20034;-68
2022/06/02 08:36:24;;;;;;;3.33;1.60;;;19.30;84.40;;;;;;5089437;28;20262;-69
2022/06/02 08:38:58;;;;;;;3.95;2.00;;;19.70;85.50;;;;;;5075211;28;20504;-66
2022/06/02 08:42:02;;;;;;;4.18;2.45;;;20.10;85.30;;;;;;5089442;28;20032;-66
2022/06/02 08:44:54;;;;;;;5.60;2.22;;;20.10;79.50;;;;;;5006611;28;20112;-66
2022/06/02 08:47:45;;;;;;;4.68;2.10;;;20.10;79.70;;;;;;5087632;28;20040;-68
2022/06/02 08:50:43;;;;;;;5.07;2.05;;;20.20;81.20;;;;;;5084477;28;20036;-67
2022/06/02 08:53:18;;;;;;;3.00;1.90;;;20.40;78.00;;;;;;5088466;28;20036;-69
2022/06/02 08:56:21;;;;;;;4.03;1.92;;;20.50;80.20;;;;;;5088972;28;20032;-67
2022/06/02 08:59:14;;;;;;;2.22;1.90;;;20.50;78.50;;;;;;5088320;28;20038;-67
2022/06/02 09:02:07;;;;;;;2.63;1.80;;;20.40;78.00;;;;;;5086922;28;20525;-68
2022/06/02 09:04:58;;;;;;;3.25;1.98;;;20.50;79.20;;;;;;5089310;28;20028;-67
2022/06/02 09:07:23;;;;;;;2.95;2.08;;;20.90;82.70;;;;;;5088665;28;20628;-67
2022/06/02 09:10:36;;;;;;;2.75;2.00;;;20.90;77.10;;;;;;5088593;28;20077;-67
2022/06/02 09:13:04;;;;;;;2.90;1.80;;;20.70;77.70;;;;;;5068036;28;20051;-67
2022/06/02 09:15:57;;;;;;;3.03;2.25;;;21.10;81.80;;;;;;5068406;28;20032;-66
2022/06/02 09:18:43;;;;;;;3.40;2.00;;;21.30;75.80;;;;;;5086542;28;20040;-69
2022/06/02 09:21:15;;;;;;;6.60;1.88;;;21.40;76.90;;;;;;5046250;28;20537;-66
2022/06/02 09:23:58;;;;;;;3.65;2.00;;;21.20;73.60;;;;;;5088939;28;20469;-68
2022/06/02 09:26:49;;;;;;;3.70;2.03;;;21.30;75.80;;;;;;5088513;28;20032;-66
2022/06/02 09:29:53;;;;;;;4.28;2.35;;;21.10;74.60;;;;;;5088002;28;20469;-67
2022/06/02 09:32:24;;;;;;;6.35;2.05;;;21.20;76.00;;;;;;5086042;28;20107;-67
2022/06/02 09:34:54;;;;;;;2.83;2.03;;;21.20;72.60;;;;;;5088694;28;20032;-66
2022/06/02 09:37:41;;;;;;;3.08;1.70;;;21.10;77.50;;;;;;5087686;28;20024;-70
2022/06/02 09:40:19;;;;;;;4.90;2.00;;;21.40;78.50;;;;;;5088021;28;20138;-67
2022/06/02 09:43:20;;;;;;;6.88;1.98;;;21.70;76.50;;;;;;5088481;28;20027;-66
2022/06/02 09:46:02;;;;;;;6.95;2.47;;;21.90;72.00;;;;;;5088022;28;20035;-67
2022/06/02 09:49:02;;;;;;;4.05;2.33;;;21.70;72.10;;;;;;5088532;28;20176;-67
2022/06/02 09:51:36;;;;;;;9.18;2.42;;;21.40;73.10;;;;;;5088380;28;20031;-68
2022/06/02 09:54:02;;;;;;;4.40;2.38;;;21.80;75.00;;;;;;5087350;28;20036;-68
2022/06/02 09:56:40;;;;;;;3.47;2.10;;;21.90;70.60;;;;;;5088648;28;20028;-66
2022/06/02 09:59:24;;;;;;;2.50;1.98;;;22.10;71.40;;;;;;5087560;28;20122;-69
2022/06/02 10:02:05;;;;;;;5.32;2.10;;;22.40;71.80;;;;;;5085734;28;20050;-69
2022/06/02 10:04:44;;;;;;;7.35;2.17;;;22.60;69.20;;;;;;5087974;28;20027;-65
2022/06/02 10:07:34;;;;;;;2.35;2.00;;;22.70;69.60;;;;;;5086552;28;20135;-68
2022/06/02 10:10:22;;;;;;;3.35;1.98;;;22.00;71.00;;;;;;5087865;28;20071;-68
2022/06/02 10:13:21;;;;;;;4.07;2.58;;;22.20;69.10;;;;;;5092152;28;20043;-67
2022/06/02 10:16:03;;;;;;;3.15;2.08;;;22.00;69.20;;;;;;5091850;28;20028;-68
2022/06/02 10:18:35;;;;;;;4.25;2.08;;;22.10;74.50;;;;;;5090706;28;20040;-67
2022/06/02 10:21:01;;;;;;;7.93;2.63;;;22.50;73.90;;;;;;5073575;28;20063;-69
2022/06/02 10:24:03;;;;;;;3.88;2.20;;;22.20;71.00;;;;;;5091482;28;20052;-69
2022/06/02 10:26:47;;;;;;;4.55;2.40;;;21.90;70.40;;;;;;5091691;28;20031;-67
2022/06/02 10:29:50;;;;;;;4.60;1.90;;;22.30;68.90;;;;;;5090951;28;20123;-68
2022/06/02 10:32:54;;;;;;;4.82;2.05;;;23.00;69.20;;;;;;5021773;28;20560;-67
2022/06/02 10:35:35;;;;;;;4.75;2.00;;;23.30;69.90;;;;;;5091086;28;20093;-67
2022/06/02 10:38:21;;;;;;;6.15;1.98;;;23.50;71.90;;;;;;5091149;28;20059;-68
2022/06/02 10:41:12;;;;;;;3.05;1.98;;;23.50;69.50;;;;;;5091619;28;20036;-67
2022/06/02 10:44:07;;;;;;;3.33;2.10;;;23.40;67.20;;;;;;5090581;28;20130;-65
2022/06/02 10:46:54;;;;;;;3.25;2.03;;;23.40;66.80;;;;;;5090505;28;20036;-70
2022/06/02 10:49:53;;;;;;;3.88;2.15;;;23.50;68.80;;;;;;5090749;28;20508;-67
2022/06/02 10:52:33;;;;;;;3.45;1.90;;;23.60;65.60;;;;;;5090522;28;20480;-69
2022/06/02 10:55:24;;;;;;;3.03;2.10;;;23.60;70.10;;;;;;5090913;28;20404;-68
2022/06/02 10:58:21;;;;;;;2.65;2.03;;;23.40;64.50;;;;;;5084569;28;20094;-66
2022/06/02 11:01:24;;;;;;;6.95;1.85;;;23.50;68.60;;;;;;5072307;28;20473;-68
2022/06/02 11:04:09;;;;;;;3.53;1.88;;;23.60;65.80;;;;;;5091206;28;20035;-66
2022/06/02 11:07:20;;;;;;;4.25;1.80;;;23.50;67.20;;;;;;5089250;28;20088;-66
2022/06/02 11:10:07;;;;;;;3.55;2.00;;;23.40;70.40;;;;;;5090795;28;20043;-67
2022/06/02 11:13:03;;;;;;;4.10;1.90;;;23.50;67.50;;;;;;5090640;28;20101;-68
2022/06/02 11:15:55;;;;;;;5.05;2.35;;;24.10;68.20;;;;;;5090129;28;20552;-65
2022/06/02 11:18:35;;;;;;;4.57;2.10;;;24.60;64.30;;;;;;5088663;28;20024;-69
2022/06/02 11:21:12;;;;;;;3.93;2.03;;;24.80;68.40;;;;;;5078696;28;20033;-66
2022/06/02 11:24:06;;;;;;;5.97;2.30;;;24.90;62.00;;;;;;5090446;28;20285;-67
2022/06/02 11:26:41;;;;;;;3.17;2.10;;;24.80;68.10;;;;;;5089743;28;20065;-67
2022/06/02 11:29:18;;;;;;;3.70;1.90;;;25.00;59.90;;;;;;5089974;28;20043;-71
2022/06/02 11:32:25;;;;;;;2.67;2.00;;;25.00;60.00;;;;;;5090399;28;20107;-67
2022/06/02 11:35:43;;;;;;;4.47;2.00;;;24.40;58.40;;;;;;5059310;28;20047;-67
2022/06/02 11:38:51;;;;;;;4.97;1.90;;;24.20;61.30;;;;;;5089379;28;20031;-67
2022/06/02 11:41:33;;;;;;;2.15;1.75;;;24.30;61.20;;;;;;5089144;28;20468;-66
2022/06/02 11:44:05;;;;;;;6.15;2.25;;;24.10;61.70;;;;;;5090489;28;20097;-69
2022/06/02 11:47:00;;;;;;;4.28;1.85;;;23.90;61.30;;;;;;5089536;28;20097;-67
2022/06/02 11:49:32;;;;;;;4.45;2.10;;;23.90;63.70;;;;;;5089232;28;20032;-66
2022/06/02 11:52:24;;;;;;;3.78;2.15;;;24.20;64.40;;;;;;5088802;28;20140;-68
2022/06/02 11:55:18;;;;;;;3.40;1.92;;;24.30;60.40;;;;;;5072094;28;20030;-66
2022/06/02 11:58:21;;;;;;;4.13;1.80;;;24.50;62.30;;;;;;5090138;28;20036;-67
2022/06/02 12:01:14;;;;;;;4.05;2.00;;;24.90;62.80;;;;;;5090031;28;20104;-67
2022/06/02 12:04:08;;;;;;;2.58;1.70;;;25.30;60.50;;;;;;5089770;28;20063;-65
2022/06/02 12:06:58;;;;;;;2.90;2.20;;;25.30;63.90;;;;;;5088755;28;20063;-65
2022/06/02 12:09:57;;;;;;;3.33;2.08;;;25.60;62.70;;;;;;5089241;28;20585;-69
2022/06/02 12:12:43;;;;;;;5.78;2.20;;;25.60;61.70;;;;;;5088903;28;20028;-68
2022/06/02 12:15:37;;;;;;;4.80;1.98;;;25.40;60.20;;;;;;5089254;28;20053;-68
2022/06/02 12:18:21;;;;;;;3.65;1.90;;;25.20;60.60;;;;;;5090004;28;20181;-66
2022/06/02 12:21:31;;;;;;;6.10;2.33;;;24.60;59.90;;;;;;5088761;28;20372;-68
2022/06/02 12:23:57;;;;;;;2.85;2.42;;;24.20;64.40;;;;;;5089407;28;20051;-68
2022/06/02 12:27:04;;;;;;;5.43;2.47;;;24.40;61.70;;;;;;5088938;28;20078;-68
2022/06/02 12:30:02;;;;;;;3.95;2.08;;;24.70;59.60;;;;;;5088735;28;20040;-68
2022/06/02 12:32:49;;;;;;;3.80;2.03;;;24.60;60.20;;;;;;5088762;28;20062;-69
2022/06/02 12:35:41;;;;;;;3.35;2.15;;;24.70;60.60;;;;;;5087200;28;20020;-67
2022/06/02 12:38:51;;;;;;;2.20;1.98;;;24.70;58.90;;;;;;5088603;28;20047;-67
2022/06/02 12:41:17;;;;;;;;;;;24.50;59.10;;;;;;5062768;28;20098;-66
2022/06/02 12:44:01;;;;;;;4.65;2.25;;;24.30;60.10;;;;;;5089272;28;20332;-67
2022/06/02 12:46:45;;;;;;;6.60;2.22;;;24.30;61.20;;;;;;5088452;28;20020;-65
2022/06/02 12:49:30;;;;;;;3.33;2.10;;;24.60;63.00;;;;;;5088687;28;20036;-71
2022/06/02 12:52:11;;;;;;;3.45;2.30;;;24.90;61.30;;;;;;5088735;28;20032;-68
2022/06/02 12:54:47;;;;;;;4.32;1.98;;;24.90;58.80;;;;;;5079298;28;20031;-65
2022/06/02 12:57:15;;;;;;;3.35;2.00;;;24.70;59.60;;;;;;5088060;28;20465;-68
2022/06/02 13:00:02;;;;;;;4.00;2.50;;;24.50;59.20;;;;;;5088756;28;20388;-66
2022/06/02 13:03:07;;;;;;;3.67;2.33;;;24.30;62.30;;;;;;5088367;28;20028;-67
2022/06/02 13:05:54;;;;;;;6.20;2.10;;;24.40;63.90;;;;;;5087712;28;20038;-68
2022/06/02 13:08:39;;;;;;;2.30;2.10;;;24.70;62.60;;;;;;5087784;28;20048;-65
2022/06/02 13:11:32;;;;;;;4.20;2.50;;;24.60;63.30;;;;;;5088653;28;20124;-67
2022/06/02 13:14:10;;;;;;;3.85;2.75;;;24.50;60.70;;;;;;5088950;28;20043;-67
2022/06/02 13:17:08;;;;;;;2.88;2.00;;;24.50;61.60;;;;;;5088436;28;20021;-66
2022/06/02 13:20:18;;;;;;;4.47;2.10;;;24.60;62.80;;;;;;5087135;28;20861;-67
2022/06/02 13:23:28;;;;;;;2.55;2.13;;;24.90;62.20;;;;;;5068718;28;20045;-67
2022/06/02 13:26:34;;;;;;;3.55;2.05;;;24.60;58.40;;;;;;5006255;28;20515;-67
2022/06/02 13:29:02;;;;;;;3.42;2.40;;;24.30;60.80;;;;;;5068645;28;20072;-68
2022/06/02 13:31:49;;;;;;;3.60;2.30;;;24.60;63.00;;;;;;5067892;28;20025;-66
2022/06/02 13:34:51;;;;;;;2.58;2.05;;;24.80;58.60;;;;;;5071619;28;20350;-69
2022/06/02 13:37:37;;;;;;;9.13;2.30;;;24.70;64.10;;;;;;5087157;28;20060;-68
2022/06/02 13:40:05;;;;;;;3.88;2.10;;;25.00;60.60;;;;;;5068672;28;20040;-67
2022/06/02 13:42:43;;;;;;;3.67;2.42;;;25.20;62.90;;;;;;5067777;28;20915;-68
2022/06/02 13:45:27;;;;;;;3.83;2.58;;;25.20;60.80;;;;;;5069681;28;20031;-69
2022/06/02 13:48:11;;;;;;;6.15;2.30;;;25.10;61.40;;;;;;5072470;28;20107;-66
2022/06/02 13:50:40;;;;;;;4.57;2.35;;;24.80;59.10;;;;;;5087954;28;20031;-67
2022/06/02 13:53:25;;;;;;;3.08;2.10;;;24.60;61.20;;;;;;5092286;28;20516;-68
2022/06/02 13:59:29;;;;;;;8.40;2.28;;;24.50;61.70;;;;;;5065891;28;20058;-68
2022/06/02 14:02:24;;;;;;;2.97;2.22;;;24.30;63.90;;;;;;5092395;28;20028;-66
2022/06/02 14:05:03;;;;;;;6.57;2.35;;;24.30;60.60;;;;;;5092322;28;20024;-67
2022/06/02 14:07:57;;;;;;;3.45;2.53;;;24.20;61.90;;;;;;5090174;28;20051;-68
2022/06/02 14:10:23;;;;;;;2.50;2.08;;;24.20;63.30;;;;;;5091511;28;20058;-68
2022/06/02 14:12:58;;;;;;;2.38;2.08;;;24.10;65.10;;;;;;5092112;28;20478;-69
2022/06/02 14:16:01;;;;;;;6.68;2.53;;;24.10;69.10;;;;;;5091319;28;20039;-69
2022/06/02 14:18:51;;;;;;;2.97;2.08;;;24.00;64.20;;;;;;5091287;28;20028;-65
2022/06/02 14:21:37;;;;;;;8.90;2.50;;;24.10;64.90;;;;;;5082387;28;20380;-71
2022/06/02 14:24:18;;;;;;;4.20;2.20;;;23.90;62.40;;;;;;5068759;28;20024;-64
2022/06/02 14:27:10;;;;;;;2.90;2.28;;;24.00;65.20;;;;;;5089687;28;20068;-65
2022/06/02 14:29:57;;;;;;;2.83;2.10;;;24.00;64.60;;;;;;5070873;28;20115;-66
2022/06/02 14:32:34;;;;;;;3.20;2.20;;;24.20;65.70;;;;;;5084686;28;20860;-65
2022/06/02 14:35:05;;;;;;;4.20;2.30;;;24.20;64.40;;;;;;5089316;28;20028;-65
2022/06/02 14:37:57;;;;;;;3.97;2.28;;;24.50;63.70;;;;;;5089884;28;20085;-65